sensor_id;sensor_type;location;lat;lon;timestamp;temperature;humidity
14473;DHT22;7322;50.872;4.386;2023-03-30T00:01:34;19.00;99.90
14473;DHT22;7322;50.872;4.386;2023-03-30T00:04:02;19.00;99.90
14473;DHT22;7322;50.872;4.386;2023-03-30T00:06:32;19.00;99.90
14473;DHT22;7322;50.872;4.386;2023-03-30T00:09:01;19.00;99.90
14473;DHT22;7322;50.872;4.386;2023-03-30T00:11:35;19.00;99.90
14473;DHT22;7322;50.872;4.386;2023-03-30T00:14:02;19.00;99.90
14473;DHT22;7322;50.872;4.386;2023-03-30T00:16:59;19.00;99.90
14473;DHT22;7322;50.872;4.386;2023-03-30T00:19:27;19.00;99.90
14473;DHT22;7322;50.872;4.386;2023-03-30T00:21:56;19.00;99.90
14473;DHT22;7322;50.872;4.386;2023-03-30T00:24:33;19.00;99.90
14473;DHT22;7322;50.872;4.386;2023-03-30T00:27:08;19.00;99.90
14473;DHT22;7322;50.872;4.386;2023-03-30T00:29:44;19.00;99.90
14473;DHT22;7322;50.872;4.386;2023-03-30T00:32:13;19.00;99.90
14473;DHT22;7322;50.872;4.386;2023-03-30T00:34:43;19.00;99.90
14473;DHT22;7322;50.872;4.386;2023-03-30T00:37:22;19.00;99.90
14473;DHT22;7322;50.872;4.386;2023-03-30T00:39:51;19.00;99.90
14473;DHT22;7322;50.872;4.386;2023-03-30T00:42:31;19.00;99.90
14473;DHT22;7322;50.872;4.386;2023-03-30T00:45:26;19.00;99.90
14473;DHT22;7322;50.872;4.386;2023-03-30T00:48:02;19.00;99.90
14473;DHT22;7322;50.872;4.386;2023-03-30T00:50:34;19.00;99.90
14473;DHT22;7322;50.872;4.386;2023-03-30T00:53:09;19.00;99.90
14473;DHT22;7322;50.872;4.386;2023-03-30T00:55:39;19.00;99.90
14473;DHT22;7322;50.872;4.386;2023-03-30T00:58:07;19.00;99.90
14473;DHT22;7322;50.872;4.386;2023-03-30T01:00:37;18.90;99.90
14473;DHT22;7322;50.872;4.386;2023-03-30T01:03:26;18.90;99.90
14473;DHT22;7322;50.872;4.386;2023-03-30T01:06:04;19.00;99.90
14473;DHT22;7322;50.872;4.386;2023-03-30T01:08:47;19.00;99.90
14473;DHT22;7322;50.872;4.386;2023-03-30T01:11:26;19.00;99.90
14473;DHT22;7322;50.872;4.386;2023-03-30T01:14:03;19.00;99.90
14473;DHT22;7322;50.872;4.386;2023-03-30T01:16:38;19.00;99.90
14473;DHT22;7322;50.872;4.386;2023-03-30T01:28:38;18.90;99.90
14473;DHT22;7322;50.872;4.386;2023-03-30T01:31:39;18.90;99.90
14473;DHT22;7322;50.872;4.386;2023-03-30T01:40:39;18.90;99.90
14473;DHT22;7322;50.872;4.386;2023-03-30T01:43:16;18.90;99.90
14473;DHT22;7322;50.872;4.386;2023-03-30T01:45:45;18.90;99.90
14473;DHT22;7322;50.872;4.386;2023-03-30T01:48:28;18.90;99.90
14473;DHT22;7322;50.872;4.386;2023-03-30T01:51:01;18.90;99.90
14473;DHT22;7322;50.872;4.386;2023-03-30T01:53:43;18.90;99.90
14473;DHT22;7322;50.872;4.386;2023-03-30T01:56:15;18.90;99.90
14473;DHT22;7322;50.872;4.386;2023-03-30T01:58:45;18.90;99.90
14473;DHT22;7322;50.872;4.386;2023-03-30T02:01:29;18.90;99.90
14473;DHT22;7322;50.872;4.386;2023-03-30T02:04:00;18.90;99.90
14473;DHT22;7322;50.872;4.386;2023-03-30T02:06:34;18.90;99.90
14473;DHT22;7322;50.872;4.386;2023-03-30T02:09:07;18.90;99.90
14473;DHT22;7322;50.872;4.386;2023-03-30T02:11:45;18.90;99.90
14473;DHT22;7322;50.872;4.386;2023-03-30T02:14:15;18.90;99.90
14473;DHT22;7322;50.872;4.386;2023-03-30T02:16:45;18.90;99.90
14473;DHT22;7322;50.872;4.386;2023-03-30T02:19:15;18.90;99.90
14473;DHT22;7322;50.872;4.386;2023-03-30T02:21:48;18.90;99.90
14473;DHT22;7322;50.872;4.386;2023-03-30T02:24:28;18.90;99.90
14473;DHT22;7322;50.872;4.386;2023-03-30T02:26:59;18.90;99.90
14473;DHT22;7322;50.872;4.386;2023-03-30T02:29:30;18.90;99.90
14473;DHT22;7322;50.872;4.386;2023-03-30T02:32:05;18.90;99.90
14473;DHT22;7322;50.872;4.386;2023-03-30T02:35:00;18.90;99.90
14473;DHT22;7322;50.872;4.386;2023-03-30T02:38:08;18.90;99.90
14473;DHT22;7322;50.872;4.386;2023-03-30T02:40:57;18.90;99.90
14473;DHT22;7322;50.872;4.386;2023-03-30T02:43:51;18.90;99.90
14473;DHT22;7322;50.872;4.386;2023-03-30T02:46:44;18.90;99.90
14473;DHT22;7322;50.872;4.386;2023-03-30T02:53:08;18.90;99.90
14473;DHT22;7322;50.872;4.386;2023-03-30T02:55:59;18.80;99.90
14473;DHT22;7322;50.872;4.386;2023-03-30T02:58:50;18.90;99.90
14473;DHT22;7322;50.872;4.386;2023-03-30T03:01:24;18.90;99.90
14473;DHT22;7322;50.872;4.386;2023-03-30T03:03:55;18.90;99.90
14473;DHT22;7322;50.872;4.386;2023-03-30T03:06:24;18.90;99.90
14473;DHT22;7322;50.872;4.386;2023-03-30T03:08:55;18.90;99.90
14473;DHT22;7322;50.872;4.386;2023-03-30T03:11:41;18.90;99.90
14473;DHT22;7322;50.872;4.386;2023-03-30T03:14:09;18.90;99.90
14473;DHT22;7322;50.872;4.386;2023-03-30T03:16:37;18.90;99.90
14473;DHT22;7322;50.872;4.386;2023-03-30T03:19:13;18.90;99.90
14473;DHT22;7322;50.872;4.386;2023-03-30T03:21:42;18.90;99.90
14473;DHT22;7322;50.872;4.386;2023-03-30T03:24:09;18.90;99.90
14473;DHT22;7322;50.872;4.386;2023-03-30T03:26:44;18.90;99.90
14473;DHT22;7322;50.872;4.386;2023-03-30T03:29:24;18.90;99.90
14473;DHT22;7322;50.872;4.386;2023-03-30T03:32:06;18.90;99.90
14473;DHT22;7322;50.872;4.386;2023-03-30T03:34:33;18.90;99.90
14473;DHT22;7322;50.872;4.386;2023-03-30T03:37:16;18.90;99.90
14473;DHT22;7322;50.872;4.386;2023-03-30T03:39:46;18.90;99.90
14473;DHT22;7322;50.872;4.386;2023-03-30T03:42:18;18.80;99.90
14473;DHT22;7322;50.872;4.386;2023-03-30T03:45:04;18.90;99.90
14473;DHT22;7322;50.872;4.386;2023-03-30T03:47:33;18.90;99.90
14473;DHT22;7322;50.872;4.386;2023-03-30T03:50:00;18.80;99.90
14473;DHT22;7322;50.872;4.386;2023-03-30T03:52:36;18.90;99.90
14473;DHT22;7322;50.872;4.386;2023-03-30T03:55:04;18.80;99.90
14473;DHT22;7322;50.872;4.386;2023-03-30T03:57:32;18.90;99.90
14473;DHT22;7322;50.872;4.386;2023-03-30T04:00:10;18.90;99.90
14473;DHT22;7322;50.872;4.386;2023-03-30T04:02:48;18.90;99.90
14473;DHT22;7322;50.872;4.386;2023-03-30T04:05:22;18.90;99.90
14473;DHT22;7322;50.872;4.386;2023-03-30T04:07:49;18.80;99.90
14473;DHT22;7322;50.872;4.386;2023-03-30T04:10:20;18.80;99.90
14473;DHT22;7322;50.872;4.386;2023-03-30T04:12:47;18.90;99.90
14473;DHT22;7322;50.872;4.386;2023-03-30T04:15:17;18.90;99.90
14473;DHT22;7322;50.872;4.386;2023-03-30T04:17:48;18.90;99.90
14473;DHT22;7322;50.872;4.386;2023-03-30T04:20:45;18.90;99.90
14473;DHT22;7322;50.872;4.386;2023-03-30T04:23:28;18.90;99.90
14473;DHT22;7322;50.872;4.386;2023-03-30T04:26:21;18.90;99.90
14473;DHT22;7322;50.872;4.386;2023-03-30T04:28:48;18.90;99.90
14473;DHT22;7322;50.872;4.386;2023-03-30T04:31:19;18.80;99.90
14473;DHT22;7322;50.872;4.386;2023-03-30T04:33:47;18.80;99.90
14473;DHT22;7322;50.872;4.386;2023-03-30T04:36:18;18.80;99.90
14473;DHT22;7322;50.872;4.386;2023-03-30T04:38:47;18.80;99.90
14473;DHT22;7322;50.872;4.386;2023-03-30T04:41:24;18.80;99.90
14473;DHT22;7322;50.872;4.386;2023-03-30T04:44:00;18.90;99.90
14473;DHT22;7322;50.872;4.386;2023-03-30T04:46:30;18.90;99.90
14473;DHT22;7322;50.872;4.386;2023-03-30T04:49:04;18.90;99.90
14473;DHT22;7322;50.872;4.386;2023-03-30T04:51:59;18.90;99.90
14473;DHT22;7322;50.872;4.386;2023-03-30T04:54:28;18.90;99.90
14473;DHT22;7322;50.872;4.386;2023-03-30T04:56:55;19.00;99.90
14473;DHT22;7322;50.872;4.386;2023-03-30T04:59:22;19.10;99.90
14473;DHT22;7322;50.872;4.386;2023-03-30T05:02:09;19.20;99.90
14473;DHT22;7322;50.872;4.386;2023-03-30T05:04:36;19.40;99.90
14473;DHT22;7322;50.872;4.386;2023-03-30T05:07:05;19.40;99.90
14473;DHT22;7322;50.872;4.386;2023-03-30T05:09:33;19.60;99.90
14473;DHT22;7322;50.872;4.386;2023-03-30T05:12:02;19.70;99.90
14473;DHT22;7322;50.872;4.386;2023-03-30T05:14:29;19.80;99.90
14473;DHT22;7322;50.872;4.386;2023-03-30T05:16:58;19.90;99.90
14473;DHT22;7322;50.872;4.386;2023-03-30T05:19:39;20.10;99.90
14473;DHT22;7322;50.872;4.386;2023-03-30T05:22:07;20.20;99.90
14473;DHT22;7322;50.872;4.386;2023-03-30T05:24:34;20.30;99.90
14473;DHT22;7322;50.872;4.386;2023-03-30T05:27:08;20.40;99.90
14473;DHT22;7322;50.872;4.386;2023-03-30T05:29:37;20.40;99.90
14473;DHT22;7322;50.872;4.386;2023-03-30T05:32:04;20.50;99.90
14473;DHT22;7322;50.872;4.386;2023-03-30T05:34:31;20.50;99.90
14473;DHT22;7322;50.872;4.386;2023-03-30T05:36:59;20.60;99.90
14473;DHT22;7322;50.872;4.386;2023-03-30T05:39:28;20.60;99.90
14473;DHT22;7322;50.872;4.386;2023-03-30T05:42:02;20.60;99.90
14473;DHT22;7322;50.872;4.386;2023-03-30T05:44:33;20.70;99.90
14473;DHT22;7322;50.872;4.386;2023-03-30T05:47:01;20.70;99.90
14473;DHT22;7322;50.872;4.386;2023-03-30T05:49:29;20.70;99.90
14473;DHT22;7322;50.872;4.386;2023-03-30T05:51:56;20.70;99.90
14473;DHT22;7322;50.872;4.386;2023-03-30T05:54:24;20.70;99.90
14473;DHT22;7322;50.872;4.386;2023-03-30T05:56:53;20.70;99.90
14473;DHT22;7322;50.872;4.386;2023-03-30T05:59:26;20.60;99.90
14473;DHT22;7322;50.872;4.386;2023-03-30T06:02:09;20.70;99.90
14473;DHT22;7322;50.872;4.386;2023-03-30T06:04:41;20.70;99.90
14473;DHT22;7322;50.872;4.386;2023-03-30T06:07:24;20.70;99.90
14473;DHT22;7322;50.872;4.386;2023-03-30T06:09:59;20.60;99.90
14473;DHT22;7322;50.872;4.386;2023-03-30T06:12:27;20.60;99.90
14473;DHT22;7322;50.872;4.386;2023-03-30T06:14:54;20.50;99.90
14473;DHT22;7322;50.872;4.386;2023-03-30T06:17:44;20.50;99.90
14473;DHT22;7322;50.872;4.386;2023-03-30T06:20:11;20.50;99.90
14473;DHT22;7322;50.872;4.386;2023-03-30T06:22:39;20.50;99.90
14473;DHT22;7322;50.872;4.386;2023-03-30T06:25:09;20.50;99.90
14473;DHT22;7322;50.872;4.386;2023-03-30T06:27:38;20.50;99.90
14473;DHT22;7322;50.872;4.386;2023-03-30T06:30:06;20.40;99.90
14473;DHT22;7322;50.872;4.386;2023-03-30T06:32:34;20.40;99.90
14473;DHT22;7322;50.872;4.386;2023-03-30T06:35:01;20.40;99.90
14473;DHT22;7322;50.872;4.386;2023-03-30T06:37:30;20.30;99.90
14473;DHT22;7322;50.872;4.386;2023-03-30T06:39:58;20.30;99.90
14473;DHT22;7322;50.872;4.386;2023-03-30T06:42:27;20.30;99.90
14473;DHT22;7322;50.872;4.386;2023-03-30T06:44:54;20.30;99.90
14473;DHT22;7322;50.872;4.386;2023-03-30T06:47:21;20.20;99.90
14473;DHT22;7322;50.872;4.386;2023-03-30T06:49:48;20.20;99.90
14473;DHT22;7322;50.872;4.386;2023-03-30T06:52:16;20.20;99.90
14473;DHT22;7322;50.872;4.386;2023-03-30T06:54:45;20.10;99.90
14473;DHT22;7322;50.872;4.386;2023-03-30T06:57:12;20.10;99.90
14473;DHT22;7322;50.872;4.386;2023-03-30T06:59:40;20.00;99.90
14473;DHT22;7322;50.872;4.386;2023-03-30T07:02:11;20.10;99.90
14473;DHT22;7322;50.872;4.386;2023-03-30T07:04:39;20.00;99.90
14473;DHT22;7322;50.872;4.386;2023-03-30T07:07:06;20.00;99.90
14473;DHT22;7322;50.872;4.386;2023-03-30T07:09:33;20.00;99.90
14473;DHT22;7322;50.872;4.386;2023-03-30T07:12:00;20.00;99.90
14473;DHT22;7322;50.872;4.386;2023-03-30T07:14:27;19.90;99.90
14473;DHT22;7322;50.872;4.386;2023-03-30T07:16:55;19.90;99.90
14473;DHT22;7322;50.872;4.386;2023-03-30T07:19:22;19.90;99.90
14473;DHT22;7322;50.872;4.386;2023-03-30T07:21:49;19.80;99.90
14473;DHT22;7322;50.872;4.386;2023-03-30T07:24:18;19.80;99.90
14473;DHT22;7322;50.872;4.386;2023-03-30T07:26:45;19.80;99.90
14473;DHT22;7322;50.872;4.386;2023-03-30T07:29:12;19.80;99.90
14473;DHT22;7322;50.872;4.386;2023-03-30T07:31:40;19.80;99.90
14473;DHT22;7322;50.872;4.386;2023-03-30T07:34:08;19.80;99.90
14473;DHT22;7322;50.872;4.386;2023-03-30T07:36:35;19.70;99.90
14473;DHT22;7322;50.872;4.386;2023-03-30T07:39:02;19.70;99.90
14473;DHT22;7322;50.872;4.386;2023-03-30T07:41:31;19.70;99.90
14473;DHT22;7322;50.872;4.386;2023-03-30T07:43:58;19.60;99.90
14473;DHT22;7322;50.872;4.386;2023-03-30T07:46:25;19.60;99.90
14473;DHT22;7322;50.872;4.386;2023-03-30T07:48:52;19.60;99.90
14473;DHT22;7322;50.872;4.386;2023-03-30T07:51:21;19.60;99.90
14473;DHT22;7322;50.872;4.386;2023-03-30T07:53:49;19.60;99.90
14473;DHT22;7322;50.872;4.386;2023-03-30T07:56:15;19.60;99.90
14473;DHT22;7322;50.872;4.386;2023-03-30T07:58:43;19.60;99.90
14473;DHT22;7322;50.872;4.386;2023-03-30T08:01:10;19.60;99.90
14473;DHT22;7322;50.872;4.386;2023-03-30T08:03:37;19.50;99.90
14473;DHT22;7322;50.872;4.386;2023-03-30T08:06:05;19.50;99.90
14473;DHT22;7322;50.872;4.386;2023-03-30T08:08:33;19.50;99.90
14473;DHT22;7322;50.872;4.386;2023-03-30T08:11:03;19.50;99.90
14473;DHT22;7322;50.872;4.386;2023-03-30T08:13:31;19.50;99.90
14473;DHT22;7322;50.872;4.386;2023-03-30T08:15:58;19.50;99.90
14473;DHT22;7322;50.872;4.386;2023-03-30T08:18:25;19.50;99.90
14473;DHT22;7322;50.872;4.386;2023-03-30T08:20:52;19.50;99.90
14473;DHT22;7322;50.872;4.386;2023-03-30T08:23:21;19.50;99.90
14473;DHT22;7322;50.872;4.386;2023-03-30T08:25:50;19.50;99.90
14473;DHT22;7322;50.872;4.386;2023-03-30T08:28:17;19.40;99.90
14473;DHT22;7322;50.872;4.386;2023-03-30T08:30:45;19.40;99.90
14473;DHT22;7322;50.872;4.386;2023-03-30T08:33:13;19.40;99.90
14473;DHT22;7322;50.872;4.386;2023-03-30T08:35:42;19.40;99.90
14473;DHT22;7322;50.872;4.386;2023-03-30T08:38:09;19.40;99.90
14473;DHT22;7322;50.872;4.386;2023-03-30T08:40:38;19.40;99.90
14473;DHT22;7322;50.872;4.386;2023-03-30T08:43:28;19.40;99.90
14473;DHT22;7322;50.872;4.386;2023-03-30T08:45:58;19.40;99.90
14473;DHT22;7322;50.872;4.386;2023-03-30T08:48:27;19.30;99.90
14473;DHT22;7322;50.872;4.386;2023-03-30T08:50:57;19.30;99.90
14473;DHT22;7322;50.872;4.386;2023-03-30T08:53:27;19.30;99.90
14473;DHT22;7322;50.872;4.386;2023-03-30T08:55:59;19.30;99.90
14473;DHT22;7322;50.872;4.386;2023-03-30T08:58:35;19.30;99.90
14473;DHT22;7322;50.872;4.386;2023-03-30T09:01:11;19.30;99.90
14473;DHT22;7322;50.872;4.386;2023-03-30T09:03:47;19.30;99.90
14473;DHT22;7322;50.872;4.386;2023-03-30T09:06:21;19.30;99.90
14473;DHT22;7322;50.872;4.386;2023-03-30T09:08:50;19.30;99.90
14473;DHT22;7322;50.872;4.386;2023-03-30T09:11:23;19.30;99.90
14473;DHT22;7322;50.872;4.386;2023-03-30T09:13:55;19.30;99.90
14473;DHT22;7322;50.872;4.386;2023-03-30T09:16:34;19.30;99.90
14473;DHT22;7322;50.872;4.386;2023-03-30T09:19:07;19.30;99.90
14473;DHT22;7322;50.872;4.386;2023-03-30T09:21:37;19.30;99.90
14473;DHT22;7322;50.872;4.386;2023-03-30T09:24:11;19.40;99.90
14473;DHT22;7322;50.872;4.386;2023-03-30T09:26:45;19.40;99.90
14473;DHT22;7322;50.872;4.386;2023-03-30T09:29:18;19.40;99.90
14473;DHT22;7322;50.872;4.386;2023-03-30T09:31:49;19.30;99.90
14473;DHT22;7322;50.872;4.386;2023-03-30T09:34:24;19.30;99.90
14473;DHT22;7322;50.872;4.386;2023-03-30T09:36:55;19.30;99.90
14473;DHT22;7322;50.872;4.386;2023-03-30T09:39:24;19.30;99.90
14473;DHT22;7322;50.872;4.386;2023-03-30T09:42:06;19.30;99.90
14473;DHT22;7322;50.872;4.386;2023-03-30T09:44:40;19.30;99.90
14473;DHT22;7322;50.872;4.386;2023-03-30T09:47:18;19.30;99.90
14473;DHT22;7322;50.872;4.386;2023-03-30T09:49:47;19.30;99.90
14473;DHT22;7322;50.872;4.386;2023-03-30T09:52:19;19.30;99.90
14473;DHT22;7322;50.872;4.386;2023-03-30T09:54:47;19.30;99.90
14473;DHT22;7322;50.872;4.386;2023-03-30T09:57:26;19.30;99.90
14473;DHT22;7322;50.872;4.386;2023-03-30T09:59:57;19.30;99.90
14473;DHT22;7322;50.872;4.386;2023-03-30T10:02:26;19.30;99.90
14473;DHT22;7322;50.872;4.386;2023-03-30T10:05:00;19.30;99.90
14473;DHT22;7322;50.872;4.386;2023-03-30T10:07:31;19.30;99.90
14473;DHT22;7322;50.872;4.386;2023-03-30T10:09:59;19.30;99.90
14473;DHT22;7322;50.872;4.386;2023-03-30T10:12:28;19.30;99.90
14473;DHT22;7322;50.872;4.386;2023-03-30T10:15:00;19.30;99.90
14473;DHT22;7322;50.872;4.386;2023-03-30T10:17:29;19.30;99.90
14473;DHT22;7322;50.872;4.386;2023-03-30T10:20:16;19.30;99.90
14473;DHT22;7322;50.872;4.386;2023-03-30T10:22:49;19.30;99.90
14473;DHT22;7322;50.872;4.386;2023-03-30T10:25:19;19.20;99.90
14473;DHT22;7322;50.872;4.386;2023-03-30T10:27:49;19.20;99.90
14473;DHT22;7322;50.872;4.386;2023-03-30T10:30:21;19.30;99.90
14473;DHT22;7322;50.872;4.386;2023-03-30T10:32:51;19.30;99.90
14473;DHT22;7322;50.872;4.386;2023-03-30T10:35:21;19.30;99.90
14473;DHT22;7322;50.872;4.386;2023-03-30T10:37:50;19.30;99.90
14473;DHT22;7322;50.872;4.386;2023-03-30T10:40:20;19.30;99.90
14473;DHT22;7322;50.872;4.386;2023-03-30T10:42:50;19.30;99.90
14473;DHT22;7322;50.872;4.386;2023-03-30T10:45:26;19.30;99.90
14473;DHT22;7322;50.872;4.386;2023-03-30T10:48:11;19.30;99.90
14473;DHT22;7322;50.872;4.386;2023-03-30T10:50:47;19.30;99.90
14473;DHT22;7322;50.872;4.386;2023-03-30T10:53:24;19.30;99.90
14473;DHT22;7322;50.872;4.386;2023-03-30T10:55:59;19.30;99.90
14473;DHT22;7322;50.872;4.386;2023-03-30T10:58:43;19.30;99.90
14473;DHT22;7322;50.872;4.386;2023-03-30T11:01:19;19.30;99.90
14473;DHT22;7322;50.872;4.386;2023-03-30T11:03:52;19.30;99.90
14473;DHT22;7322;50.872;4.386;2023-03-30T11:06:21;19.40;99.90
14473;DHT22;7322;50.872;4.386;2023-03-30T11:08:51;19.30;99.90
14473;DHT22;7322;50.872;4.386;2023-03-30T11:11:22;19.30;99.90
14473;DHT22;7322;50.872;4.386;2023-03-30T11:13:52;19.40;99.90
14473;DHT22;7322;50.872;4.386;2023-03-30T11:16:26;19.40;99.90
14473;DHT22;7322;50.872;4.386;2023-03-30T11:19:02;19.40;99.90
14473;DHT22;7322;50.872;4.386;2023-03-30T11:21:34;19.40;99.90
14473;DHT22;7322;50.872;4.386;2023-03-30T11:24:06;19.40;99.90
14473;DHT22;7322;50.872;4.386;2023-03-30T11:26:39;19.40;99.90
14473;DHT22;7322;50.872;4.386;2023-03-30T11:29:20;19.40;99.90
14473;DHT22;7322;50.872;4.386;2023-03-30T11:32:07;19.40;99.90
14473;DHT22;7322;50.872;4.386;2023-03-30T11:34:39;19.40;99.90
14473;DHT22;7322;50.872;4.386;2023-03-30T11:37:12;19.30;99.90
14473;DHT22;7322;50.872;4.386;2023-03-30T11:39:48;19.40;99.90
14473;DHT22;7322;50.872;4.386;2023-03-30T11:42:20;19.30;99.90
14473;DHT22;7322;50.872;4.386;2023-03-30T11:44:50;19.40;99.90
14473;DHT22;7322;50.872;4.386;2023-03-30T11:47:39;19.40;99.90
14473;DHT22;7322;50.872;4.386;2023-03-30T11:50:22;19.40;99.90
14473;DHT22;7322;50.872;4.386;2023-03-30T11:53:03;19.40;99.90
14473;DHT22;7322;50.872;4.386;2023-03-30T11:55:54;19.40;99.90
14473;DHT22;7322;50.872;4.386;2023-03-30T11:58:33;19.40;99.90
14473;DHT22;7322;50.872;4.386;2023-03-30T12:04:01;19.40;99.90
14473;DHT22;7322;50.872;4.386;2023-03-30T12:06:31;19.40;99.90
14473;DHT22;7322;50.872;4.386;2023-03-30T12:09:11;19.40;99.90
14473;DHT22;7322;50.872;4.386;2023-03-30T12:11:45;19.40;99.90
14473;DHT22;7322;50.872;4.386;2023-03-30T12:14:30;19.40;99.90
14473;DHT22;7322;50.872;4.386;2023-03-30T12:17:04;19.40;99.90
14473;DHT22;7322;50.872;4.386;2023-03-30T12:19:41;19.40;99.90
14473;DHT22;7322;50.872;4.386;2023-03-30T12:22:22;19.40;99.90
14473;DHT22;7322;50.872;4.386;2023-03-30T12:24:53;19.40;99.90
14473;DHT22;7322;50.872;4.386;2023-03-30T12:27:22;19.40;99.90
14473;DHT22;7322;50.872;4.386;2023-03-30T12:29:53;19.50;99.90
14473;DHT22;7322;50.872;4.386;2023-03-30T12:32:24;19.40;99.90
14473;DHT22;7322;50.872;4.386;2023-03-30T12:34:53;19.40;99.90
14473;DHT22;7322;50.872;4.386;2023-03-30T12:37:22;19.40;99.90
14473;DHT22;7322;50.872;4.386;2023-03-30T12:39:54;19.40;99.90
14473;DHT22;7322;50.872;4.386;2023-03-30T12:42:24;19.40;99.90
14473;DHT22;7322;50.872;4.386;2023-03-30T12:45:29;19.50;99.90
14473;DHT22;7322;50.872;4.386;2023-03-30T12:48:08;19.50;99.90
14473;DHT22;7322;50.872;4.386;2023-03-30T12:50:44;19.40;99.90
14473;DHT22;7322;50.872;4.386;2023-03-30T12:53:44;19.40;99.90
14473;DHT22;7322;50.872;4.386;2023-03-30T12:56:15;19.40;99.90
14473;DHT22;7322;50.872;4.386;2023-03-30T12:59:01;19.40;99.90
14473;DHT22;7322;50.872;4.386;2023-03-30T13:01:44;19.40;99.90
14473;DHT22;7322;50.872;4.386;2023-03-30T13:04:19;19.40;99.90
14473;DHT22;7322;50.872;4.386;2023-03-30T13:06:51;19.40;99.90
14473;DHT22;7322;50.872;4.386;2023-03-30T13:12:31;19.50;99.90
14473;DHT22;7322;50.872;4.386;2023-03-30T13:15:05;19.40;99.90
14473;DHT22;7322;50.872;4.386;2023-03-30T13:17:48;19.50;99.90
14473;DHT22;7322;50.872;4.386;2023-03-30T13:20:27;19.40;99.90
14473;DHT22;7322;50.872;4.386;2023-03-30T13:23:04;19.40;99.90
14473;DHT22;7322;50.872;4.386;2023-03-30T13:25:39;19.40;99.90
14473;DHT22;7322;50.872;4.386;2023-03-30T13:28:43;19.40;99.90
14473;DHT22;7322;50.872;4.386;2023-03-30T13:31:29;19.40;99.90
14473;DHT22;7322;50.872;4.386;2023-03-30T13:34:05;19.40;99.90
14473;DHT22;7322;50.872;4.386;2023-03-30T13:36:39;19.40;99.90
14473;DHT22;7322;50.872;4.386;2023-03-30T13:39:18;19.40;99.90
14473;DHT22;7322;50.872;4.386;2023-03-30T13:41:57;19.40;99.90
14473;DHT22;7322;50.872;4.386;2023-03-30T13:44:48;19.40;99.90
14473;DHT22;7322;50.872;4.386;2023-03-30T13:47:32;19.40;99.90
14473;DHT22;7322;50.872;4.386;2023-03-30T13:50:04;19.40;99.90
14473;DHT22;7322;50.872;4.386;2023-03-30T13:52:36;19.40;99.90
14473;DHT22;7322;50.872;4.386;2023-03-30T13:55:14;19.40;99.90
14473;DHT22;7322;50.872;4.386;2023-03-30T13:57:44;19.40;99.90
14473;DHT22;7322;50.872;4.386;2023-03-30T14:00:28;19.40;99.90
14473;DHT22;7322;50.872;4.386;2023-03-30T14:03:28;19.40;99.90
14473;DHT22;7322;50.872;4.386;2023-03-30T14:05:58;19.40;99.90
14473;DHT22;7322;50.872;4.386;2023-03-30T14:08:29;19.40;99.90
14473;DHT22;7322;50.872;4.386;2023-03-30T14:11:02;19.40;99.90
14473;DHT22;7322;50.872;4.386;2023-03-30T14:13:29;19.40;99.90
14473;DHT22;7322;50.872;4.386;2023-03-30T14:15:57;19.40;99.90
14473;DHT22;7322;50.872;4.386;2023-03-30T14:18:24;19.40;99.90
14473;DHT22;7322;50.872;4.386;2023-03-30T14:20:55;19.40;99.90
14473;DHT22;7322;50.872;4.386;2023-03-30T14:23:30;19.40;99.90
14473;DHT22;7322;50.872;4.386;2023-03-30T14:26:01;19.40;99.90
14473;DHT22;7322;50.872;4.386;2023-03-30T14:28:30;19.40;99.90
14473;DHT22;7322;50.872;4.386;2023-03-30T14:31:01;19.40;99.90
14473;DHT22;7322;50.872;4.386;2023-03-30T14:33:30;19.40;99.90
14473;DHT22;7322;50.872;4.386;2023-03-30T14:35:58;19.40;99.90
14473;DHT22;7322;50.872;4.386;2023-03-30T14:38:30;19.40;99.90
14473;DHT22;7322;50.872;4.386;2023-03-30T14:41:04;19.40;99.90
14473;DHT22;7322;50.872;4.386;2023-03-30T14:43:33;19.40;99.90
14473;DHT22;7322;50.872;4.386;2023-03-30T14:46:04;19.30;99.90
14473;DHT22;7322;50.872;4.386;2023-03-30T14:48:35;19.40;99.90
14473;DHT22;7322;50.872;4.386;2023-03-30T14:51:06;19.40;99.90
14473;DHT22;7322;50.872;4.386;2023-03-30T14:53:34;19.30;99.90
14473;DHT22;7322;50.872;4.386;2023-03-30T14:56:03;19.30;99.90
14473;DHT22;7322;50.872;4.386;2023-03-30T14:58:31;19.30;99.90
14473;DHT22;7322;50.872;4.386;2023-03-30T15:01:00;19.30;99.90
14473;DHT22;7322;50.872;4.386;2023-03-30T15:03:31;19.30;99.90
14473;DHT22;7322;50.872;4.386;2023-03-30T15:06:00;19.30;99.90
14473;DHT22;7322;50.872;4.386;2023-03-30T15:08:31;19.30;99.90
14473;DHT22;7322;50.872;4.386;2023-03-30T15:11:00;19.30;99.90
14473;DHT22;7322;50.872;4.386;2023-03-30T15:13:34;19.30;99.90
14473;DHT22;7322;50.872;4.386;2023-03-30T15:16:03;19.30;99.90
14473;DHT22;7322;50.872;4.386;2023-03-30T15:18:33;19.30;99.90
14473;DHT22;7322;50.872;4.386;2023-03-30T15:21:02;19.30;99.90
14473;DHT22;7322;50.872;4.386;2023-03-30T15:23:33;19.30;99.90
14473;DHT22;7322;50.872;4.386;2023-03-30T15:26:02;19.30;99.90
14473;DHT22;7322;50.872;4.386;2023-03-30T15:28:36;19.30;99.90
14473;DHT22;7322;50.872;4.386;2023-03-30T15:31:10;19.30;99.90
14473;DHT22;7322;50.872;4.386;2023-03-30T15:33:49;19.30;99.90
14473;DHT22;7322;50.872;4.386;2023-03-30T15:36:19;19.30;99.90
14473;DHT22;7322;50.872;4.386;2023-03-30T15:38:52;19.30;99.90
14473;DHT22;7322;50.872;4.386;2023-03-30T15:41:56;19.30;99.90
14473;DHT22;7322;50.872;4.386;2023-03-30T15:44:33;19.30;99.90
14473;DHT22;7322;50.872;4.386;2023-03-30T15:47:17;19.30;99.90
14473;DHT22;7322;50.872;4.386;2023-03-30T15:49:52;19.30;99.90
14473;DHT22;7322;50.872;4.386;2023-03-30T15:52:23;19.30;99.90
14473;DHT22;7322;50.872;4.386;2023-03-30T15:55:02;19.30;99.90
14473;DHT22;7322;50.872;4.386;2023-03-30T15:57:51;19.30;99.90
14473;DHT22;7322;50.872;4.386;2023-03-30T16:00:22;19.30;99.90
14473;DHT22;7322;50.872;4.386;2023-03-30T16:02:53;19.30;99.90
14473;DHT22;7322;50.872;4.386;2023-03-30T16:05:24;19.30;99.90
14473;DHT22;7322;50.872;4.386;2023-03-30T16:07:57;19.30;99.90
14473;DHT22;7322;50.872;4.386;2023-03-30T16:10:29;19.30;99.90
14473;DHT22;7322;50.872;4.386;2023-03-30T16:13:05;19.30;99.90
14473;DHT22;7322;50.872;4.386;2023-03-30T16:15:35;19.30;99.90
14473;DHT22;7322;50.872;4.386;2023-03-30T16:18:03;19.30;99.90
14473;DHT22;7322;50.872;4.386;2023-03-30T16:20:31;19.30;99.90
14473;DHT22;7322;50.872;4.386;2023-03-30T16:23:01;19.30;99.90
14473;DHT22;7322;50.872;4.386;2023-03-30T16:25:37;19.30;99.90
14473;DHT22;7322;50.872;4.386;2023-03-30T16:28:05;19.30;99.90
14473;DHT22;7322;50.872;4.386;2023-03-30T16:30:40;19.30;99.90
14473;DHT22;7322;50.872;4.386;2023-03-30T16:33:08;19.40;99.90
14473;DHT22;7322;50.872;4.386;2023-03-30T16:35:35;19.30;99.90
14473;DHT22;7322;50.872;4.386;2023-03-30T16:38:03;19.40;99.90
14473;DHT22;7322;50.872;4.386;2023-03-30T16:40:36;19.40;99.90
14473;DHT22;7322;50.872;4.386;2023-03-30T16:43:03;19.40;99.90
14473;DHT22;7322;50.872;4.386;2023-03-30T16:45:31;19.30;99.90
14473;DHT22;7322;50.872;4.386;2023-03-30T16:48:00;19.40;99.90
14473;DHT22;7322;50.872;4.386;2023-03-30T16:50:32;19.40;99.90